<?xml version="1.0" encoding="utf-8"?>
<gpx xmlns:xsi="http://www.w3.org/2001/XMLSchema-instance" xmlns:xsd="http://www.w3.org/2001/XMLSchema" version="1.1" creator="Shapelink.com" xmlns="http://www.topografix.com/GPX/1/1" xmlns:gpxtpx="http://www.garmin.com/xmlschemas/TrackPointExtension/v1">
  <metadata>
    <name>Promenad 4.22 km, 2017-03-08</name>
    <desc></desc>
    <author><name>Morten Hedlund</name></author> 
    <time>2017-03-08T12:20:56Z</time>
  </metadata>
  <trk>
    <name>Promenad 4.22 km, 2017-03-08</name>
    <trkseg>
      <trkpt lat="59.026850553656" lon="12.224241666041">
        <ele>104.4</ele>
        <time>2017-03-08T12:20:56Z</time>
      </trkpt>
      <trkpt lat="59.026781151524" lon="12.224578115507">
        <ele>98.8</ele>
        <time>2017-03-08T12:21:09Z</time>
      </trkpt>
      <trkpt lat="59.026710575926" lon="12.224909368195">
        <ele>97</ele>
        <time>2017-03-08T12:21:22Z</time>
      </trkpt>
      <trkpt lat="59.026662799096" lon="12.225251601172">
        <ele>95.2</ele>
        <time>2017-03-08T12:21:36Z</time>
      </trkpt>
      <trkpt lat="59.026606221271" lon="12.225591906312">
        <ele>93.6</ele>
        <time>2017-03-08T12:21:50Z</time>
      </trkpt>
      <trkpt lat="59.026546709781" lon="12.225934977479">
        <ele>91.8</ele>
        <time>2017-03-08T12:22:03Z</time>
      </trkpt>
      <trkpt lat="59.026392063726" lon="12.226103118393">
        <ele>91.2</ele>
        <time>2017-03-08T12:22:14Z</time>
      </trkpt>
      <trkpt lat="59.02620732665" lon="12.2261913798">
        <ele>89</ele>
        <time>2017-03-08T12:22:27Z</time>
      </trkpt>
      <trkpt lat="59.026023511583" lon="12.226280898492">
        <ele>88</ele>
        <time>2017-03-08T12:22:38Z</time>
      </trkpt>
      <trkpt lat="59.025846485855" lon="12.226373183211">
        <ele>87.2</ele>
        <time>2017-03-08T12:22:50Z</time>
      </trkpt>
      <trkpt lat="59.025665688272" lon="12.226487931422">
        <ele>87</ele>
        <time>2017-03-08T12:23:03Z</time>
      </trkpt>
      <trkpt lat="59.025496960625" lon="12.226613492284">
        <ele>87.4</ele>
        <time>2017-03-08T12:23:15Z</time>
      </trkpt>
      <trkpt lat="59.025323958209" lon="12.2267362033">
        <ele>88.6</ele>
        <time>2017-03-08T12:23:27Z</time>
      </trkpt>
      <trkpt lat="59.025147603033" lon="12.226844748905">
        <ele>90.6</ele>
        <time>2017-03-08T12:23:41Z</time>
      </trkpt>
      <trkpt lat="59.024969571477" lon="12.226951199035">
        <ele>92</ele>
        <time>2017-03-08T12:23:54Z</time>
      </trkpt>
      <trkpt lat="59.024785337315" lon="12.227009788516">
        <ele>92.8</ele>
        <time>2017-03-08T12:24:07Z</time>
      </trkpt>
      <trkpt lat="59.024649634354" lon="12.227241212775">
        <ele>92.4</ele>
        <time>2017-03-08T12:24:19Z</time>
      </trkpt>
      <trkpt lat="59.024648796164" lon="12.227605322511">
        <ele>90.4</ele>
        <time>2017-03-08T12:24:33Z</time>
      </trkpt>
      <trkpt lat="59.024650975458" lon="12.227953338999">
        <ele>88.8</ele>
        <time>2017-03-08T12:24:46Z</time>
      </trkpt>
      <trkpt lat="59.024681485574" lon="12.228294733786">
        <ele>87.2</ele>
        <time>2017-03-08T12:24:59Z</time>
      </trkpt>
      <trkpt lat="59.024854823266" lon="12.228307474274">
        <ele>85.8</ele>
        <time>2017-03-08T12:25:13Z</time>
      </trkpt>
      <trkpt lat="59.024959513197" lon="12.228166490716">
        <ele>84.8</ele>
        <time>2017-03-08T12:25:23Z</time>
      </trkpt>
      <trkpt lat="59.025013827909" lon="12.228411577472">
        <ele>83.8</ele>
        <time>2017-03-08T12:25:33Z</time>
      </trkpt>
      <trkpt lat="59.025170066525" lon="12.2285969851">
        <ele>82.8</ele>
        <time>2017-03-08T12:25:46Z</time>
      </trkpt>
      <trkpt lat="59.02534902009" lon="12.228658256789">
        <ele>82.8</ele>
        <time>2017-03-08T12:25:59Z</time>
      </trkpt>
      <trkpt lat="59.025530488225" lon="12.228644510473">
        <ele>83.4</ele>
        <time>2017-03-08T12:26:12Z</time>
      </trkpt>
      <trkpt lat="59.025701646623" lon="12.228784152927">
        <ele>84.4</ele>
        <time>2017-03-08T12:26:25Z</time>
      </trkpt>
      <trkpt lat="59.025871547736" lon="12.228913318006">
        <ele>84.8</ele>
        <time>2017-03-08T12:26:38Z</time>
      </trkpt>
      <trkpt lat="59.026056620088" lon="12.228871995239">
        <ele>85.4</ele>
        <time>2017-03-08T12:26:52Z</time>
      </trkpt>
      <trkpt lat="59.026219396586" lon="12.228695388606">
        <ele>87</ele>
        <time>2017-03-08T12:27:06Z</time>
      </trkpt>
      <trkpt lat="59.026361805067" lon="12.228466981831">
        <ele>89.8</ele>
        <time>2017-03-08T12:27:20Z</time>
      </trkpt>
      <trkpt lat="59.026547715609" lon="12.228434543878">
        <ele>83.4</ele>
        <time>2017-03-08T12:27:35Z</time>
      </trkpt>
      <trkpt lat="59.026737398006" lon="12.228437729">
        <ele>86.2</ele>
        <time>2017-03-08T12:27:48Z</time>
      </trkpt>
      <trkpt lat="59.026916938304" lon="12.228488188038">
        <ele>85.8</ele>
        <time>2017-03-08T12:27:59Z</time>
      </trkpt>
      <trkpt lat="59.027099915181" lon="12.228537222153">
        <ele>88.2</ele>
        <time>2017-03-08T12:28:11Z</time>
      </trkpt>
      <trkpt lat="59.027279287841" lon="12.228573934875">
        <ele>89.6</ele>
        <time>2017-03-08T12:28:25Z</time>
      </trkpt>
      <trkpt lat="59.027468048229" lon="12.22862799813">
        <ele>88</ele>
        <time>2017-03-08T12:28:39Z</time>
      </trkpt>
      <trkpt lat="59.027547341003" lon="12.22864895288">
        <ele>89.2</ele>
        <time>2017-03-08T12:28:45Z</time>
      </trkpt>
      <trkpt lat="59.027551615772" lon="12.229006776191">
        <ele>85.6</ele>
        <time>2017-03-08T12:28:57Z</time>
      </trkpt>
      <trkpt lat="59.027520518923" lon="12.229354457403">
        <ele>83.8</ele>
        <time>2017-03-08T12:29:09Z</time>
      </trkpt>
      <trkpt lat="59.027451452067" lon="12.229679423666">
        <ele>83.2</ele>
        <time>2017-03-08T12:29:21Z</time>
      </trkpt>
      <trkpt lat="59.027328405775" lon="12.229954098529">
        <ele>82</ele>
        <time>2017-03-08T12:29:33Z</time>
      </trkpt>
      <trkpt lat="59.02719722904" lon="12.230221481139">
        <ele>82.4</ele>
        <time>2017-03-08T12:29:46Z</time>
      </trkpt>
      <trkpt lat="59.02706479502" lon="12.230477212908">
        <ele>82.6</ele>
        <time>2017-03-08T12:29:59Z</time>
      </trkpt>
      <trkpt lat="59.026917441218" lon="12.230716851429">
        <ele>82</ele>
        <time>2017-03-08T12:30:12Z</time>
      </trkpt>
      <trkpt lat="59.026775451832" lon="12.230970236266">
        <ele>83.6</ele>
        <time>2017-03-08T12:30:25Z</time>
      </trkpt>
      <trkpt lat="59.026635390283" lon="12.231192943349">
        <ele>83.8</ele>
        <time>2017-03-08T12:30:37Z</time>
      </trkpt>
      <trkpt lat="59.026463728971" lon="12.231283635507">
        <ele>83.8</ele>
        <time>2017-03-08T12:30:49Z</time>
      </trkpt>
      <trkpt lat="59.026283434302" lon="12.231320012953">
        <ele>82.8</ele>
        <time>2017-03-08T12:31:01Z</time>
      </trkpt>
      <trkpt lat="59.026103810185" lon="12.231395198596">
        <ele>81.8</ele>
        <time>2017-03-08T12:31:13Z</time>
      </trkpt>
      <trkpt lat="59.025940698411" lon="12.231553448868">
        <ele>82.2</ele>
        <time>2017-03-08T12:31:25Z</time>
      </trkpt>
      <trkpt lat="59.025784795071" lon="12.231740784333">
        <ele>81</ele>
        <time>2017-03-08T12:31:37Z</time>
      </trkpt>
      <trkpt lat="59.025661413503" lon="12.231992995704">
        <ele>80.6</ele>
        <time>2017-03-08T12:31:49Z</time>
      </trkpt>
      <trkpt lat="59.025543815446" lon="12.232274208449">
        <ele>80.8</ele>
        <time>2017-03-08T12:32:01Z</time>
      </trkpt>
      <trkpt lat="59.025449016157" lon="12.232595235219">
        <ele>80.4</ele>
        <time>2017-03-08T12:32:14Z</time>
      </trkpt>
      <trkpt lat="59.025418757498" lon="12.232962949172">
        <ele>80</ele>
        <time>2017-03-08T12:32:27Z</time>
      </trkpt>
      <trkpt lat="59.025473994219" lon="12.233301410294">
        <ele>81.6</ele>
        <time>2017-03-08T12:32:38Z</time>
      </trkpt>
      <trkpt lat="59.025579689978" lon="12.233602991056">
        <ele>81.6</ele>
        <time>2017-03-08T12:32:51Z</time>
      </trkpt>
      <trkpt lat="59.025717153138" lon="12.233866517992">
        <ele>83.2</ele>
        <time>2017-03-08T12:33:04Z</time>
      </trkpt>
      <trkpt lat="59.025874649039" lon="12.234008926473">
        <ele>84.4</ele>
        <time>2017-03-08T12:33:18Z</time>
      </trkpt>
      <trkpt lat="59.025902896042" lon="12.23400414879">
        <ele>84</ele>
        <time>2017-03-08T12:33:20Z</time>
      </trkpt>
      <trkpt lat="59.026080257046" lon="12.233946481318">
        <ele>84</ele>
        <time>2017-03-08T12:33:33Z</time>
      </trkpt>
      <trkpt lat="59.026242362992" lon="12.233788985417">
        <ele>84.4</ele>
        <time>2017-03-08T12:33:45Z</time>
      </trkpt>
      <trkpt lat="59.026368175311" lon="12.233518250047">
        <ele>84.6</ele>
        <time>2017-03-08T12:33:57Z</time>
      </trkpt>
      <trkpt lat="59.026513936552" lon="12.233298644267">
        <ele>85.6</ele>
        <time>2017-03-08T12:34:09Z</time>
      </trkpt>
      <trkpt lat="59.026677383602" lon="12.233138717615">
        <ele>85.8</ele>
        <time>2017-03-08T12:34:21Z</time>
      </trkpt>
      <trkpt lat="59.026847284715" lon="12.233019946092">
        <ele>86</ele>
        <time>2017-03-08T12:34:33Z</time>
      </trkpt>
      <trkpt lat="59.027024729538" lon="12.23294048568">
        <ele>86.4</ele>
        <time>2017-03-08T12:34:45Z</time>
      </trkpt>
      <trkpt lat="59.02720812551" lon="12.232919363292">
        <ele>86.4</ele>
        <time>2017-03-08T12:34:57Z</time>
      </trkpt>
      <trkpt lat="59.027390180378" lon="12.232913495962">
        <ele>87.2</ele>
        <time>2017-03-08T12:35:09Z</time>
      </trkpt>
      <trkpt lat="59.02757609092" lon="12.232886590063">
        <ele>87.8</ele>
        <time>2017-03-08T12:35:22Z</time>
      </trkpt>
      <trkpt lat="59.027764935127" lon="12.232856331404">
        <ele>88.2</ele>
        <time>2017-03-08T12:35:35Z</time>
      </trkpt>
      <trkpt lat="59.027956545361" lon="12.232802016692">
        <ele>88.6</ele>
        <time>2017-03-08T12:35:48Z</time>
      </trkpt>
      <trkpt lat="59.028144719016" lon="12.232709648154">
        <ele>88.4</ele>
        <time>2017-03-08T12:36:01Z</time>
      </trkpt>
      <trkpt lat="59.028333395585" lon="12.232615854693">
        <ele>88</ele>
        <time>2017-03-08T12:36:14Z</time>
      </trkpt>
      <trkpt lat="59.028508409657" lon="12.232519462843">
        <ele>88.4</ele>
        <time>2017-03-08T12:36:26Z</time>
      </trkpt>
      <trkpt lat="59.028654338536" lon="12.232321147089">
        <ele>90</ele>
        <time>2017-03-08T12:36:39Z</time>
      </trkpt>
      <trkpt lat="59.028808816953" lon="12.232100870757">
        <ele>90.8</ele>
        <time>2017-03-08T12:36:52Z</time>
      </trkpt>
      <trkpt lat="59.028754753698" lon="12.231775988313">
        <ele>90.6</ele>
        <time>2017-03-08T12:37:05Z</time>
      </trkpt>
      <trkpt lat="59.028591474286" lon="12.231341135341">
        <ele>90.4</ele>
        <time>2017-03-08T12:37:24Z</time>
      </trkpt>
      <trkpt lat="59.02846541051" lon="12.231090851807">
        <ele>87.6</ele>
        <time>2017-03-08T12:37:36Z</time>
      </trkpt>
      <trkpt lat="59.028324343133" lon="12.230841406463">
        <ele>82.8</ele>
        <time>2017-03-08T12:37:50Z</time>
      </trkpt>
      <trkpt lat="59.028208589094" lon="12.23056589341">
        <ele>80</ele>
        <time>2017-03-08T12:38:04Z</time>
      </trkpt>
      <trkpt lat="59.028082190042" lon="12.230283758656">
        <ele>85.2</ele>
        <time>2017-03-08T12:38:16Z</time>
      </trkpt>
      <trkpt lat="59.027970543134" lon="12.22999508602">
        <ele>86.2</ele>
        <time>2017-03-08T12:38:28Z</time>
      </trkpt>
      <trkpt lat="59.027853950905" lon="12.229721584623">
        <ele>88</ele>
        <time>2017-03-08T12:38:40Z</time>
      </trkpt>
      <trkpt lat="59.027707854388" lon="12.229506337431">
        <ele>89.4</ele>
        <time>2017-03-08T12:38:53Z</time>
      </trkpt>
      <trkpt lat="59.027562763699" lon="12.22930693203">
        <ele>88.6</ele>
        <time>2017-03-08T12:39:06Z</time>
      </trkpt>
      <trkpt lat="59.027568463391" lon="12.228958664085">
        <ele>91</ele>
        <time>2017-03-08T12:39:17Z</time>
      </trkpt>
      <trkpt lat="59.027682876326" lon="12.228708799646">
        <ele>91.2</ele>
        <time>2017-03-08T12:39:28Z</time>
      </trkpt>
      <trkpt lat="59.027866188479" lon="12.228773424095">
        <ele>89.4</ele>
        <time>2017-03-08T12:39:40Z</time>
      </trkpt>
      <trkpt lat="59.028043884759" lon="12.228911641626">
        <ele>89.2</ele>
        <time>2017-03-08T12:39:53Z</time>
      </trkpt>
      <trkpt lat="59.028207750904" lon="12.229080536911">
        <ele>91.4</ele>
        <time>2017-03-08T12:40:07Z</time>
      </trkpt>
      <trkpt lat="59.028394918731" lon="12.229137030917">
        <ele>92.8</ele>
        <time>2017-03-08T12:40:19Z</time>
      </trkpt>
      <trkpt lat="59.028584014395" lon="12.229163852997">
        <ele>91.6</ele>
        <time>2017-03-08T12:40:33Z</time>
      </trkpt>
      <trkpt lat="59.028780318493" lon="12.22917952715">
        <ele>89.8</ele>
        <time>2017-03-08T12:40:46Z</time>
      </trkpt>
      <trkpt lat="59.028953153271" lon="12.229042566904">
        <ele>94.4</ele>
        <time>2017-03-08T12:40:59Z</time>
      </trkpt>
      <trkpt lat="59.029097573408" lon="12.228819608364">
        <ele>100</ele>
        <time>2017-03-08T12:41:16Z</time>
      </trkpt>
      <trkpt lat="59.029174938345" lon="12.228843664417">
        <ele>94.4</ele>
        <time>2017-03-08T12:41:20Z</time>
      </trkpt>
      <trkpt lat="59.029380043438" lon="12.228841401304">
        <ele>94</ele>
        <time>2017-03-08T12:41:32Z</time>
      </trkpt>
      <trkpt lat="59.029559919012" lon="12.228712403863">
        <ele>90.8</ele>
        <time>2017-03-08T12:41:45Z</time>
      </trkpt>
      <trkpt lat="59.029707775728" lon="12.228517608507">
        <ele>88.6</ele>
        <time>2017-03-08T12:41:56Z</time>
      </trkpt>
      <trkpt lat="59.029799222257" lon="12.228208819311">
        <ele>93.8</ele>
        <time>2017-03-08T12:42:08Z</time>
      </trkpt>
      <trkpt lat="59.029890082053" lon="12.22790296378">
        <ele>92.6</ele>
        <time>2017-03-08T12:42:21Z</time>
      </trkpt>
      <trkpt lat="59.029929309345" lon="12.227556958948">
        <ele>89.8</ele>
        <time>2017-03-08T12:42:35Z</time>
      </trkpt>
      <trkpt lat="59.029967363171" lon="12.227201482569">
        <ele>89.6</ele>
        <time>2017-03-08T12:42:49Z</time>
      </trkpt>
      <trkpt lat="59.029986809179" lon="12.226832176055">
        <ele>91.8</ele>
        <time>2017-03-08T12:43:02Z</time>
      </trkpt>
      <trkpt lat="59.030021594064" lon="12.226475693848">
        <ele>94.4</ele>
        <time>2017-03-08T12:43:14Z</time>
      </trkpt>
      <trkpt lat="59.030032155258" lon="12.226103872764">
        <ele>88.6</ele>
        <time>2017-03-08T12:43:27Z</time>
      </trkpt>
      <trkpt lat="59.030062413917" lon="12.225750827136">
        <ele>85.2</ele>
        <time>2017-03-08T12:43:40Z</time>
      </trkpt>
      <trkpt lat="59.03016190707" lon="12.225453521143">
        <ele>85.2</ele>
        <time>2017-03-08T12:43:52Z</time>
      </trkpt>
      <trkpt lat="59.030275397996" lon="12.225164848507">
        <ele>90.6</ele>
        <time>2017-03-08T12:44:04Z</time>
      </trkpt>
      <trkpt lat="59.030288892855" lon="12.225113718917">
        <ele>91.4</ele>
        <time>2017-03-08T12:44:06Z</time>
      </trkpt>
      <trkpt lat="59.030396181175" lon="12.224823956634">
        <ele>90.4</ele>
        <time>2017-03-08T12:44:19Z</time>
      </trkpt>
      <trkpt lat="59.030447059308" lon="12.224487507168">
        <ele>95.8</ele>
        <time>2017-03-08T12:44:32Z</time>
      </trkpt>
      <trkpt lat="59.030549486126" lon="12.224197241971">
        <ele>96.4</ele>
        <time>2017-03-08T12:44:43Z</time>
      </trkpt>
      <trkpt lat="59.030656271532" lon="12.223906809136">
        <ele>93.4</ele>
        <time>2017-03-08T12:44:54Z</time>
      </trkpt>
      <trkpt lat="59.030772696123" lon="12.2236265184">
        <ele>93.8</ele>
        <time>2017-03-08T12:45:07Z</time>
      </trkpt>
      <trkpt lat="59.030866405765" lon="12.223328541855">
        <ele>93.4</ele>
        <time>2017-03-08T12:45:19Z</time>
      </trkpt>
      <trkpt lat="59.030987859496" lon="12.223043389617">
        <ele>93.4</ele>
        <time>2017-03-08T12:45:33Z</time>
      </trkpt>
      <trkpt lat="59.031113085082" lon="12.222760249035">
        <ele>91.8</ele>
        <time>2017-03-08T12:45:47Z</time>
      </trkpt>
      <trkpt lat="59.031222552696" lon="12.222464703241">
        <ele>92.4</ele>
        <time>2017-03-08T12:46:00Z</time>
      </trkpt>
      <trkpt lat="59.031350795766" lon="12.222197907364">
        <ele>94</ele>
        <time>2017-03-08T12:46:13Z</time>
      </trkpt>
      <trkpt lat="59.031398153501" lon="12.222042087843">
        <ele>92.2</ele>
        <time>2017-03-08T12:46:20Z</time>
      </trkpt>
      <trkpt lat="59.03124484855" lon="12.221836312198">
        <ele>92.2</ele>
        <time>2017-03-08T12:46:33Z</time>
      </trkpt>
      <trkpt lat="59.031090370133" lon="12.221636571521">
        <ele>89.8</ele>
        <time>2017-03-08T12:46:46Z</time>
      </trkpt>
      <trkpt lat="59.03094645291" lon="12.22142626965">
        <ele>91.2</ele>
        <time>2017-03-08T12:46:59Z</time>
      </trkpt>
      <trkpt lat="59.030771522657" lon="12.221299786779">
        <ele>93.4</ele>
        <time>2017-03-08T12:47:13Z</time>
      </trkpt>
      <trkpt lat="59.030759452721" lon="12.221311018525">
        <ele>93.6</ele>
        <time>2017-03-08T12:47:14Z</time>
      </trkpt>
      <trkpt lat="59.030721398895" lon="12.221399363751">
        <ele>97.4</ele>
        <time>2017-03-08T12:47:20Z</time>
      </trkpt>
      <trkpt lat="59.030579158052" lon="12.221175483202">
        <ele>100.4</ele>
        <time>2017-03-08T12:47:34Z</time>
      </trkpt>
      <trkpt lat="59.030397941374" lon="12.221051766358">
        <ele>98.2</ele>
        <time>2017-03-08T12:47:45Z</time>
      </trkpt>
      <trkpt lat="59.030219993637" lon="12.220927127505">
        <ele>99</ele>
        <time>2017-03-08T12:47:58Z</time>
      </trkpt>
      <trkpt lat="59.030033412543" lon="12.22082864018">
        <ele>97.6</ele>
        <time>2017-03-08T12:48:12Z</time>
      </trkpt>
      <trkpt lat="59.029853788426" lon="12.220741384601">
        <ele>96.8</ele>
        <time>2017-03-08T12:48:23Z</time>
      </trkpt>
      <trkpt lat="59.02967491868" lon="12.220693272495">
        <ele>93.4</ele>
        <time>2017-03-08T12:48:36Z</time>
      </trkpt>
      <trkpt lat="59.029497557676" lon="12.220619595594">
        <ele>94.6</ele>
        <time>2017-03-08T12:48:48Z</time>
      </trkpt>
      <trkpt lat="59.029320448129" lon="12.220520605355">
        <ele>96.2</ele>
        <time>2017-03-08T12:49:00Z</time>
      </trkpt>
      <trkpt lat="59.029136716881" lon="12.220465117177">
        <ele>96</ele>
        <time>2017-03-08T12:49:12Z</time>
      </trkpt>
      <trkpt lat="59.028946447751" lon="12.220376185218">
        <ele>95.2</ele>
        <time>2017-03-08T12:49:26Z</time>
      </trkpt>
      <trkpt lat="59.028765398711" lon="12.220225227199">
        <ele>95.4</ele>
        <time>2017-03-08T12:49:39Z</time>
      </trkpt>
      <trkpt lat="59.028580996911" lon="12.220176779817">
        <ele>95.2</ele>
        <time>2017-03-08T12:49:51Z</time>
      </trkpt>
      <trkpt lat="59.028391063057" lon="12.220117100689">
        <ele>94.4</ele>
        <time>2017-03-08T12:50:04Z</time>
      </trkpt>
      <trkpt lat="59.028209594922" lon="12.220063624167">
        <ele>95.6</ele>
        <time>2017-03-08T12:50:17Z</time>
      </trkpt>
      <trkpt lat="59.028031395728" lon="12.220008638903">
        <ele>95.6</ele>
        <time>2017-03-08T12:50:30Z</time>
      </trkpt>
      <trkpt lat="59.027847496842" lon="12.219925825731">
        <ele>97</ele>
        <time>2017-03-08T12:50:44Z</time>
      </trkpt>
      <trkpt lat="59.027658317359" lon="12.219846784414">
        <ele>98</ele>
        <time>2017-03-08T12:50:56Z</time>
      </trkpt>
      <trkpt lat="59.027464024917" lon="12.219803282353">
        <ele>97.8</ele>
        <time>2017-03-08T12:51:08Z</time>
      </trkpt>
      <trkpt lat="59.027269481018" lon="12.219791882969">
        <ele>97.2</ele>
        <time>2017-03-08T12:51:21Z</time>
      </trkpt>
      <trkpt lat="59.027086504141" lon="12.219696496947">
        <ele>96.6</ele>
        <time>2017-03-08T12:51:35Z</time>
      </trkpt>
      <trkpt lat="59.02689967159" lon="12.2196283521">
        <ele>97.2</ele>
        <time>2017-03-08T12:51:47Z</time>
      </trkpt>
      <trkpt lat="59.026716610894" lon="12.21958728079">
        <ele>97.4</ele>
        <time>2017-03-08T12:52:00Z</time>
      </trkpt>
      <trkpt lat="59.026526844678" lon="12.219569259705">
        <ele>97.6</ele>
        <time>2017-03-08T12:52:13Z</time>
      </trkpt>
      <trkpt lat="59.02633892248" lon="12.219525170911">
        <ele>98.6</ele>
        <time>2017-03-08T12:52:27Z</time>
      </trkpt>
      <trkpt lat="59.026156867612" lon="12.21949340351">
        <ele>98.2</ele>
        <time>2017-03-08T12:52:40Z</time>
      </trkpt>
      <trkpt lat="59.025972298174" lon="12.219454595313">
        <ele>99.4</ele>
        <time>2017-03-08T12:52:52Z</time>
      </trkpt>
      <trkpt lat="59.0257840407" lon="12.219423414645">
        <ele>99.6</ele>
        <time>2017-03-08T12:53:05Z</time>
      </trkpt>
      <trkpt lat="59.02560466804" lon="12.219392569253">
        <ele>102</ele>
        <time>2017-03-08T12:53:17Z</time>
      </trkpt>
      <trkpt lat="59.025428815778" lon="12.219322328931">
        <ele>101.4</ele>
        <time>2017-03-08T12:53:30Z</time>
      </trkpt>
      <trkpt lat="59.025085996068" lon="12.219120157503">
        <ele>102.6</ele>
        <time>2017-03-08T12:53:55Z</time>
      </trkpt>
      <trkpt lat="59.024926237054" lon="12.218947658001">
        <ele>102.2</ele>
        <time>2017-03-08T12:54:08Z</time>
      </trkpt>
      <trkpt lat="59.024770333714" lon="12.218766860418">
        <ele>102.4</ele>
        <time>2017-03-08T12:54:20Z</time>
      </trkpt>
      <trkpt lat="59.024605042646" lon="12.218598719504">
        <ele>102.2</ele>
        <time>2017-03-08T12:54:33Z</time>
      </trkpt>
      <trkpt lat="59.024442433786" lon="12.21841800574">
        <ele>102.4</ele>
        <time>2017-03-08T12:54:46Z</time>
      </trkpt>
      <trkpt lat="59.024282758591" lon="12.218256486527">
        <ele>105.4</ele>
        <time>2017-03-08T12:54:58Z</time>
      </trkpt>
      <trkpt lat="59.02411520441" lon="12.21808021517">
        <ele>107.2</ele>
        <time>2017-03-08T12:55:12Z</time>
      </trkpt>
      <trkpt lat="59.023945470935" lon="12.217910314057">
        <ele>109</ele>
        <time>2017-03-08T12:55:26Z</time>
      </trkpt>
      <trkpt lat="59.023777749116" lon="12.217754578355">
        <ele>112</ele>
        <time>2017-03-08T12:55:41Z</time>
      </trkpt>
      <trkpt lat="59.02360726127" lon="12.217589454925">
        <ele>111.2</ele>
        <time>2017-03-08T12:55:55Z</time>
      </trkpt>
      <trkpt lat="59.023429313533" lon="12.217468168832">
        <ele>109.2</ele>
        <time>2017-03-08T12:56:08Z</time>
      </trkpt>
      <trkpt lat="59.023370724052" lon="12.217494068903">
        <ele>109.2</ele>
        <time>2017-03-08T12:56:12Z</time>
      </trkpt>
      <trkpt lat="59.023242900077" lon="12.217741251134">
        <ele>109.4</ele>
        <time>2017-03-08T12:56:25Z</time>
      </trkpt>
      <trkpt lat="59.023160254543" lon="12.218079712256">
        <ele>111.2</ele>
        <time>2017-03-08T12:56:39Z</time>
      </trkpt>
      <trkpt lat="59.023083224882" lon="12.218397302447">
        <ele>111.6</ele>
        <time>2017-03-08T12:56:52Z</time>
      </trkpt>
      <trkpt lat="59.023028323437" lon="12.218743055822">
        <ele>117.6</ele>
        <time>2017-03-08T12:57:06Z</time>
      </trkpt>
      <trkpt lat="59.022960346228" lon="12.219065172239">
        <ele>121</ele>
        <time>2017-03-08T12:57:20Z</time>
      </trkpt>
      <trkpt lat="59.022984569919" lon="12.219408830139">
        <ele>119.8</ele>
        <time>2017-03-08T12:57:34Z</time>
      </trkpt>
      <trkpt lat="59.02314960953" lon="12.219565404031">
        <ele>117.2</ele>
        <time>2017-03-08T12:57:49Z</time>
      </trkpt>
      <trkpt lat="59.023324036869" lon="12.219685768115">
        <ele>113.8</ele>
        <time>2017-03-08T12:58:04Z</time>
      </trkpt>
      <trkpt lat="59.023485891358" lon="12.219847371147">
        <ele>112.4</ele>
        <time>2017-03-08T12:58:17Z</time>
      </trkpt>
      <trkpt lat="59.023521011519" lon="12.2199468643">
        <ele>112.6</ele>
        <time>2017-03-08T12:58:21Z</time>
      </trkpt>
      <trkpt lat="59.023479940209" lon="12.220293288227">
        <ele>115.8</ele>
        <time>2017-03-08T12:58:34Z</time>
      </trkpt>
      <trkpt lat="59.023643051983" lon="12.22046402753">
        <ele>114.4</ele>
        <time>2017-03-08T12:58:49Z</time>
      </trkpt>
      <trkpt lat="59.023794429097" lon="12.220677263066">
        <ele>113.6</ele>
        <time>2017-03-08T12:59:03Z</time>
      </trkpt>
      <trkpt lat="59.023978160345" lon="12.220789496707">
        <ele>114.2</ele>
        <time>2017-03-08T12:59:17Z</time>
      </trkpt>
      <trkpt lat="59.024139763377" lon="12.220934335939">
        <ele>115.8</ele>
        <time>2017-03-08T12:59:30Z</time>
      </trkpt>
      <trkpt lat="59.024228527698" lon="12.22122761862">
        <ele>116.4</ele>
        <time>2017-03-08T12:59:43Z</time>
      </trkpt>
      <trkpt lat="59.024201957075" lon="12.221604049749">
        <ele>123.4</ele>
        <time>2017-03-08T12:59:57Z</time>
      </trkpt>
      <trkpt lat="59.024182427248" lon="12.221897751525">
        <ele>124.2</ele>
        <time>2017-03-08T13:00:09Z</time>
      </trkpt>
      <trkpt lat="59.024338917321" lon="12.222106628473">
        <ele>118.8</ele>
        <time>2017-03-08T13:00:25Z</time>
      </trkpt>
      <trkpt lat="59.024504459846" lon="12.222259179053">
        <ele>115.6</ele>
        <time>2017-03-08T13:00:39Z</time>
      </trkpt>
      <trkpt lat="59.024668158353" lon="12.222436623876">
        <ele>116.6</ele>
        <time>2017-03-08T13:00:53Z</time>
      </trkpt>
      <trkpt lat="59.024841831321" lon="12.222601747306">
        <ele>116.6</ele>
        <time>2017-03-08T13:01:07Z</time>
      </trkpt>
      <trkpt lat="59.025011648615" lon="12.222765194356">
        <ele>118.2</ele>
        <time>2017-03-08T13:01:20Z</time>
      </trkpt>
      <trkpt lat="59.025177442597" lon="12.222898801842">
        <ele>119.8</ele>
        <time>2017-03-08T13:01:33Z</time>
      </trkpt>
      <trkpt lat="59.025297219948" lon="12.223191665428">
        <ele>123</ele>
        <time>2017-03-08T13:01:47Z</time>
      </trkpt>
      <trkpt lat="59.025362934044" lon="12.223525767962">
        <ele>118.2</ele>
        <time>2017-03-08T13:02:00Z</time>
      </trkpt>
      <trkpt lat="59.025338542715" lon="12.223879148866">
        <ele>116</ele>
        <time>2017-03-08T13:02:12Z</time>
      </trkpt>
      <trkpt lat="59.025335692869" lon="12.223932625388">
        <ele>114.6</ele>
        <time>2017-03-08T13:02:14Z</time>
      </trkpt>
      <trkpt lat="59.02536075475" lon="12.224276450926">
        <ele>112</ele>
        <time>2017-03-08T13:02:28Z</time>
      </trkpt>
      <trkpt lat="59.02553928922" lon="12.22427527746">
        <ele>110.6</ele>
        <time>2017-03-08T13:02:44Z</time>
      </trkpt>
      <trkpt lat="59.025729809807" lon="12.22424007348">
        <ele>108.2</ele>
        <time>2017-03-08T13:02:58Z</time>
      </trkpt>
      <trkpt lat="59.025917648186" lon="12.224212664667">
        <ele>107.8</ele>
        <time>2017-03-08T13:03:11Z</time>
      </trkpt>
      <trkpt lat="59.026104145461" lon="12.224209982459">
        <ele>105.4</ele>
        <time>2017-03-08T13:03:25Z</time>
      </trkpt>
      <trkpt lat="59.026286451786" lon="12.224177879782">
        <ele>105.4</ele>
        <time>2017-03-08T13:03:37Z</time>
      </trkpt>
      <trkpt lat="59.026471775595" lon="12.224146782933">
        <ele>102.2</ele>
        <time>2017-03-08T13:03:50Z</time>
      </trkpt>
      <trkpt lat="59.026661206535" lon="12.224153572272">
        <ele>99</ele>
        <time>2017-03-08T13:04:05Z</time>
      </trkpt>
      <trkpt lat="59.026834879503" lon="12.224214173409">
        <ele>99.2</ele>
        <time>2017-03-08T13:04:17Z</time>
      </trkpt>
      <trkpt lat="59.027019029846" lon="12.224244096792">
        <ele>104.8</ele>
        <time>2017-03-08T13:04:30Z</time>
      </trkpt>
      <trkpt lat="59.027094886041" lon="12.224225656612">
        <ele>106.2</ele>
        <time>2017-03-08T13:04:37Z</time>
      </trkpt>
      <trkpt lat="59.027096227145" lon="12.224230937209">
        <ele>106.4</ele>
        <time>2017-03-08T13:04:38Z</time>
      </trkpt>
    </trkseg>
  </trk>
</gpx>